Terminal Aerodrome Forecast
Issued by NWS

Home | Current Version | Previous Version | Text Only | Print | Product List | Glossary On
Versions: 1 2 3 4 5 6 7 8 9 10 11 12 13 14 15 16 17 18
000
FTUS45 KBOU 240520
TAFBJC
TAF
KBJC 240520Z 2406/2506 16006KT P6SM SCT180 BKN220
     FM240700 VRB05KT P6SM SCT180 BKN220
     FM241500 33006KT P6SM FEW090 SCT140
     FM241800 05008KT P6SM VCSH SCT090 BKN140
     FM242100 34008KT P6SM SCT090 BKN130 PROB30 2421/2503 VRB20G35KT
      TSRA BKN080CB
     FM250300 VRB05KT P6SM FEW090 BKN140=

USA.gov is the U.S. government's official web portal to all federal, state and local government web resources and services.